Route Details

Aircraft Information
Group: Boeing 737 Only
Types: B738
Route Data
Distance: 386nm
Duration: 1h 10m
Origin METAR: MMMX 100345Z 32008KT 8SM SKC 16/04 A3035 NOSIG RMK HZY
Dest. METAR: MMMY 100340Z 03003KT 4SM BKN020 19/17 A3001 RMK 8/500 HZY
Freight Data
(for Dec 10, 2022)
Load Factor:
43%
Manifested Cargo: 21,623lbs
Financial History
Total Freight: 89,521lbs
Average Load: 0lbs/flt
Fuel Used: 18,342lbs
Avg. Fuel Used: 0lbs/flt
Fuel Expense: $11,489
Avg. Fuel Expense: $0
Avg. Fuel Cost: $0/lbs
Total Gross Income: $279,306
Pilot Pay: $797
Total Expenses: $60,176
Total Revenue: $206,167
Average Revenue: $0

Capitol Logistics 764




MMMX
Benito Juárez International Airport
Mexico City, MX
MMMY
General Mariano Escobedo International Airport
Monterrey, MX

Activity Log

Date Flight Route Aircraft Duration
09/12/2022 CPX764 Not Available B738 1h 56m
07/09/2022 CPX764 AXIR2A AXIRI UT138 CVM UJ15E RETOS RETO1A B738 1h 33m
06/29/2022 CPX3126 AXIR2A AXIRI UT138 CVM UJ15E RETOS RETO1B B738 1h 23m